Time;durP1;ratioP1;P1;durP2;ratioP2;P2;SDS_P1;SDS_P2;PMS_P1;PMS_P2;Temp;Humidity;BMP_temperature;BMP_pressure;BME280_temperature;BME280_humidity;BME280_pressure;Samples;Min_cycle;Max_cycle;Signal;HPM_P1;HPM_P2
2023/07/15 06:08:15;;;;;;;;;;;;;;;;;;6273847;22;20009;-81
2023/07/15 06:10:42;;;;;;;;;;;;;;;;;;6308650;22;19946;-81
2023/07/15 06:13:07;;;;;;;;;;;;;;;;;;6309731;22;20331;-81
2023/07/15 06:15:35;;;;;;;;;;;;;;;;;;6310265;22;19956;-80
2023/07/15 06:18:01;;;;;;;;;;;;;;;;;;6309249;22;19906;-81
2023/07/15 06:20:27;;;;;;;;;;;;;;;;;;6309750;22;20383;-80
2023/07/15 06:22:52;;;;;;;;;;;;;;;;;;6309564;22;19907;-82
2023/07/15 06:25:17;;;;;;;;;;;;;;;;;;6309542;22;19960;-81
2023/07/15 06:27:43;;;;;;;;;;;;;;;;;;6309125;22;19906;-83
2023/07/15 06:30:08;;;;;;;;;;;;;;;;;;6282747;22;20245;-81
2023/07/15 06:32:34;;;;;;;;;;;;;;;;;;6309312;22;19934;-83
2023/07/15 06:34:59;;;;;;;;;;;;;;;;;;6281774;22;19915;-82
2023/07/15 06:37:24;;;;;;;;;;;;;;;;;;6309633;22;19907;-83
2023/07/15 06:39:50;;;;;;;;;;;;;;;;;;6309703;22;19976;-82
2023/07/15 06:42:15;;;;;;;;;;;;;;;;;;6309916;22;19938;-82
2023/07/15 06:44:40;;;;;;;;;;;;;;;;;;6309989;22;20298;-81
2023/07/15 06:47:06;;;;;;;;;;;;;;;;;;6309398;22;20316;-82
2023/07/15 06:49:31;;;;;;;;;;;;;;;;;;6309118;22;20272;-82
2023/07/15 06:51:56;;;;;;;;;;;;;;;;;;6308320;22;19914;-82
2023/07/15 06:54:23;;;;;;;;;;;;;;;;;;6309415;22;19982;-84
2023/07/15 06:56:48;;;;;;;;;;;;;;;;;;6309103;22;19907;-82
2023/07/15 06:59:14;;;;;;;;;;;;;;;;;;6309660;22;19994;-84
2023/07/15 07:01:39;;;;;;;;;;;;;;;;;;6309575;22;19978;-83
2023/07/15 07:04:05;;;;;;;;;;;;;;;;;;6309400;22;19907;-82
2023/07/15 07:06:30;;;;;;;;;;;;;;;;;;6309397;22;19913;-84
2023/07/15 07:08:55;;;;;;;;;;;;;;;;;;6309757;22;20345;-84
2023/07/15 07:11:21;;;;;;;;;;;;;;;;;;6309259;22;19907;-83
2023/07/15 07:13:46;;;;;;;;;;;;;;;;;;6280489;22;19918;-82
2023/07/15 07:16:11;;;;;;;;;;;;;;;;;;6308689;22;19915;-82
2023/07/15 07:18:37;;;;;;;;;;;;;;;;;;6309034;22;20329;-83
2023/07/15 07:21:02;;;;;;;;;;;;;;;;;;6309172;22;19914;-83
2023/07/15 07:23:29;;;;;;;;;;;;;;;;;;6309382;22;19907;-81
2023/07/15 07:25:55;;;;;;;;;;;;;;;;;;6308866;22;20249;-82
2023/07/15 07:28:22;;;;;;;;;;;;;;;;;;6308883;22;19910;-82
2023/07/15 07:30:47;;;;;;;;;;;;;;;;;;6308487;22;19951;-82
2023/07/15 07:33:12;;;;;;;;;;;;;;;;;;6308542;22;19986;-81
2023/07/15 07:35:37;;;;;;;;;;;;;;;;;;6308600;22;20310;-81
2023/07/15 07:38:03;;;;;;;;;;;;;;;;;;6308457;22;19907;-82
2023/07/15 07:40:28;;;;;;;;;;;;;;;;;;6308837;22;19910;-81
2023/07/15 07:42:54;;;;;;;;;;;;;;;;;;6308833;22;19960;-84
2023/07/15 07:45:20;;;;;;;;;;;;;;;;;;6308472;22;20249;-82
2023/07/15 07:47:45;;;;;;;;;;;;;;;;;;6308400;22;19907;-82
2023/07/15 07:50:11;;;;;;;;;;;;;;;;;;6308637;22;19930;-84
2023/07/15 07:52:36;;;;;;;;;;;;;;;;;;6309842;22;19914;-92
2023/07/15 07:55:03;;;;;;;;;;;;;;;;;;6308794;22;19907;-92
2023/07/15 07:57:28;;;;;;;;;;;;;;;;;;6309020;22;20333;-92
2023/07/15 07:59:53;;;;;;;;;;;;;;;;;;6309143;22;19907;-82
2023/07/15 08:02:19;;;;;;;;;;;;;;;;;;6280993;22;19910;-81
2023/07/15 08:04:44;;;;;;;;;;;;;;;;;;6308605;22;19907;-83
2023/07/15 08:07:10;;;;;;;;;;;;;;;;;;6308532;22;19934;-87
2023/07/15 08:09:35;;;;;;;;;;;;;;;;;;6275984;22;19918;-88
2023/07/15 08:12:00;;;;;;;;;;;;;;;;;;6277467;22;19945;-87
2023/07/15 08:14:25;;;;;;;;;;;;;;;;;;6277955;22;19922;-87
2023/07/15 08:16:51;;;;;;;;;;;;;;;;;;6277685;22;20354;-87
2023/07/15 08:19:16;;;;;;;;;;;;;;;;;;6277584;22;19918;-87
2023/07/15 08:21:42;;;;;;;;;;;;;;;;;;6277003;22;19907;-91
2023/07/15 08:24:07;;;;;;;;;;;;;;;;;;6277091;22;19914;-91
2023/07/15 08:26:35;;;;;;;;;;;;;;;;;;6278426;22;19911;-93
2023/07/15 08:29:02;;;;;;;;;;;;;;;;;;6278440;22;19908;-89
2023/07/15 08:31:27;;;;;;;;;;;;;;;;;;6277130;22;19907;-92
2023/07/15 08:33:53;;;;;;;;;;;;;;;;;;6277389;22;19911;-91
2023/07/15 08:36:18;;;;;;;;;;;;;;;;;;6276084;22;20410;-87
2023/07/15 08:38:44;;;;;;;;;;;;;;;;;;6275980;22;19907;-87
2023/07/15 08:41:10;;;;;;;;;;;;;;;;;;6279155;22;19989;-91
2023/07/15 08:43:35;;;;;;;;;;;;;;;;;;6279745;22;19907;-90
2023/07/15 08:46:06;;;;;;;;;;;;;;;;;;6279635;22;19930;-93
2023/07/15 08:48:32;;;;;;;;;;;;;;;;;;6279692;22;20310;-92
2023/07/15 08:50:57;;;;;;;;;;;;;;;;;;6279948;22;19907;-89
2023/07/15 08:53:25;;;;;;;;;;;;;;;;;;6278283;22;20238;-90
2023/07/15 08:55:52;;;;;;;;;;;;;;;;;;6279849;22;19918;-94
2023/07/15 08:58:17;;;;;;;;;;;;;;;;;;6280709;22;19907;-96
2023/07/15 09:00:42;;;;;;;;;;;;;;;;;;6280604;22;20004;-96
2023/07/15 09:03:08;;;;;;;;;;;;;;;;;;6278226;22;20277;-87
2023/07/15 09:05:33;;;;;;;;;;;;;;;;;;6279948;22;19911;-88
2023/07/15 09:07:58;;;;;;;;;;;;;;;;;;6303461;22;19934;-86
2023/07/15 09:10:28;;;;;;;;;;;;;;;;;;6317934;22;19891;-86
2023/07/15 09:13:21;;;;;;;;;;;;;;;;;;6318028;22;19915;-86
2023/07/15 09:15:46;;;;;;;;;;;;;;;;;;6312268;22;20235;-87
2023/07/15 09:18:12;;;;;;;;;;;;;;;;;;6310576;22;19930;-87
2023/07/15 09:20:37;;;;;;;;;;;;;;;;;;6311381;22;20310;-87
2023/07/15 09:23:02;;;;;;;;;;;;;;;;;;6310030;22;19913;-88
2023/07/15 09:25:28;;;;;;;;;;;;;;;;;;6312552;22;19928;-86
2023/07/15 09:27:53;;;;;;;;;;;;;;;;;;6312847;22;19937;-88
2023/07/15 09:30:19;;;;;;;;;;;;;;;;;;6312650;22;19911;-91
2023/07/15 09:32:45;;;;;;;;;;;;;;;;;;6315494;22;20425;-89
2023/07/15 09:35:10;;;;;;;;;;;;;;;;;;6313514;22;19907;-89
2023/07/15 09:37:37;;;;;;;;;;;;;;;;;;6310271;22;19941;-87
2023/07/15 09:40:09;;;;;;;;;;;;;;;;;;6312032;22;19907;-87
2023/07/15 09:42:54;;;;;;;;;;;;;;;;;;6313297;22;19906;-93
2023/07/15 09:45:38;;;;;;;;;;;;;;;;;;6314320;22;19911;-96
2023/07/15 09:48:05;;;;;;;;;;;;;;;;;;6312981;22;19906;-87
2023/07/15 09:50:36;;;;;;;;;;;;;;;;;;6315195;22;19911;-88
2023/07/15 09:53:02;;;;;;;;;;;;;;;;;;6310416;22;19914;-94
2023/07/15 09:55:28;;;;;;;;;;;;;;;;;;6310729;22;19907;-94
2023/07/15 09:57:58;;;;;;;;;;;;;;;;;;6283527;22;19907;-91
2023/07/15 10:00:26;;;;;;;;;;;;;;;;;;6311724;22;19907;-86
2023/07/15 10:02:55;;;;;;;;;;;;;;;;;;6310594;22;19938;-91
2023/07/15 10:05:22;;;;;;;;;;;;;;;;;;6310726;22;19925;-88
2023/07/15 10:07:47;;;;;;;;;;;;;;;;;;6310266;22;19917;-90
2023/07/15 10:10:13;;;;;;;;;;;;;;;;;;6309493;22;19982;-88
2023/07/15 10:12:38;;;;;;;;;;;;;;;;;;6309930;22;20219;-92
2023/07/15 10:15:04;;;;;;;;;;;;;;;;;;6309867;22;19913;-90
2023/07/15 10:17:33;;;;;;;;;;;;;;;;;;6309831;22;20245;-85
2023/07/15 10:20:03;;;;;;;;;;;;;;;;;;6309772;22;20242;-86
2023/07/15 10:22:32;;;;;;;;;;;;;;;;;;6309655;22;19907;-90
2023/07/15 10:24:58;;;;;;;;;;;;;;;;;;6309852;22;20052;-88
2023/07/15 10:27:27;;;;;;;;;;;;;;;;;;6309922;22;20318;-91
2023/07/15 10:30:11;;;;;;;;;;;;;;;;;;6309920;22;19914;-86
2023/07/15 10:32:36;;;;;;;;;;;;;;;;;;6309381;22;20387;-85
2023/07/15 10:35:03;;;;;;;;;;;;;;;;;;6309758;22;19907;-87
2023/07/15 10:37:32;;;;;;;;;;;;;;;;;;6309695;22;20238;-90
2023/07/15 10:39:57;;;;;;;;;;;;;;;;;;6309438;22;19907;-86
2023/07/15 10:42:24;;;;;;;;;;;;;;;;;;6309367;22;19907;-85
2023/07/15 10:44:53;;;;;;;;;;;;;;;;;;6309163;22;19910;-83
2023/07/15 10:47:19;;;;;;;;;;;;;;;;;;6309444;22;19907;-92
2023/07/15 10:49:45;;;;;;;;;;;;;;;;;;6309776;22;19935;-84
2023/07/15 10:52:11;;;;;;;;;;;;;;;;;;6309799;22;19933;-89
2023/07/15 10:54:40;;;;;;;;;;;;;;;;;;6309795;22;19930;-94
2023/07/15 10:57:15;;;;;;;;;;;;;;;;;;6313893;22;19935;-83
2023/07/15 10:59:41;;;;;;;;;;;;;;;;;;6314688;22;20330;-85
2023/07/15 11:02:07;;;;;;;;;;;;;;;;;;6309668;22;19986;-85
2023/07/15 11:04:33;;;;;;;;;;;;;;;;;;6308899;22;19934;-85
2023/07/15 11:07:02;;;;;;;;;;;;;;;;;;6309345;22;20002;-85
2023/07/15 11:09:27;;;;;;;;;;;;;;;;;;6309550;22;19907;-83
2023/07/15 11:11:53;;;;;;;;;;;;;;;;;;6278583;22;19914;-85
2023/07/15 11:14:22;;;;;;;;;;;;;;;;;;6276532;22;19907;-84
2023/07/15 11:16:52;;;;;;;;;;;;;;;;;;6278590;22;19914;-87
2023/07/15 11:19:17;;;;;;;;;;;;;;;;;;6276758;22;19907;-85
2023/07/15 11:21:43;;;;;;;;;;;;;;;;;;6279773;22;19914;-90
2023/07/15 11:24:10;;;;;;;;;;;;;;;;;;6252903;22;19911;-90
2023/07/15 11:26:35;;;;;;;;;;;;;;;;;;6278927;22;19914;-92
2023/07/15 11:29:01;;;;;;;;;;;;;;;;;;6279005;22;19907;-93
2023/07/15 11:31:26;;;;;;;;;;;;;;;;;;6280104;22;19996;-91
2023/07/15 11:33:52;;;;;;;;;;;;;;;;;;6276801;22;19961;-90
2023/07/15 11:36:18;;;;;;;;;;;;;;;;;;6276484;22;19914;-90
2023/07/15 11:38:43;;;;;;;;;;;;;;;;;;6275946;22;19978;-93
2023/07/15 11:41:08;;;;;;;;;;;;;;;;;;6276186;22;20204;-91
2023/07/15 11:43:34;;;;;;;;;;;;;;;;;;6278219;22;20226;-95
2023/07/15 11:46:00;;;;;;;;;;;;;;;;;;6278295;22;20234;-91
2023/07/15 11:48:26;;;;;;;;;;;;;;;;;;6278152;22;20279;-93
2023/07/15 11:51:10;;;;;;;;;;;;;;;;;;6276356;22;20279;-92
2023/07/15 11:53:36;;;;;;;;;;;;;;;;;;6278172;22;19914;-92
2023/07/15 11:56:02;;;;;;;;;;;;;;;;;;6277151;22;19903;-93
2023/07/15 11:58:43;;;;;;;;;;;;;;;;;;6276307;22;19956;-93
2023/07/15 12:01:26;;;;;;;;;;;;;;;;;;6279469;22;19903;-91
2023/07/15 12:03:52;;;;;;;;;;;;;;;;;;6278387;22;19914;-91
2023/07/15 12:06:21;;;;;;;;;;;;;;;;;;6278056;22;19942;-91
2023/07/15 12:09:25;;;;;;;;;;;;;;;;;;6278115;22;19957;-91
2023/07/15 12:11:50;;;;;;;;;;;;;;;;;;6131416;23;19916;-91
2023/07/15 12:14:16;;;;;;;;;;;;;;;;;;6155125;23;20311;-92
2023/07/15 12:16:43;;;;;;;;;;;;;;;;;;6155656;23;19908;-93
2023/07/15 12:19:09;;;;;;;;;;;;;;;;;;6158911;23;19908;-91
2023/07/15 12:21:34;;;;;;;;;;;;;;;;;;6136123;23;19909;-92
2023/07/15 12:24:00;;;;;;;;;;;;;;;;;;6149375;23;19908;-91
2023/07/15 12:26:25;;;;;;;;;;;;;;;;;;6158105;23;19897;-90
2023/07/15 12:28:51;;;;;;;;;;;;;;;;;;6183247;23;19897;-91
2023/07/15 12:31:17;;;;;;;;;;;;;;;;;;6158389;23;19917;-92
2023/07/15 12:33:43;;;;;;;;;;;;;;;;;;6156223;23;19904;-92
2023/07/15 12:36:09;;;;;;;;;;;;;;;;;;6134424;23;19909;-94
2023/07/15 12:38:34;;;;;;;;;;;;;;;;;;6132658;23;19908;-94
2023/07/15 12:41:01;;;;;;;;;;;;;;;;;;6157030;23;19986;-91
2023/07/15 12:43:27;;;;;;;;;;;;;;;;;;6237671;22;19982;-91
2023/07/15 12:45:52;;;;;;;;;;;;;;;;;;6251702;22;19938;-91
2023/07/15 12:48:18;;;;;;;;;;;;;;;;;;6251389;22;19955;-90
2023/07/15 12:50:43;;;;;;;;;;;;;;;;;;6278362;22;19907;-90
2023/07/15 12:53:08;;;;;;;;;;;;;;;;;;6251968;22;20303;-91
2023/07/15 12:55:34;;;;;;;;;;;;;;;;;;6252146;22;20207;-92
2023/07/15 12:57:59;;;;;;;;;;;;;;;;;;6251620;22;19903;-91
2023/07/15 13:00:24;;;;;;;;;;;;;;;;;;6278262;22;20306;-91
2023/07/15 13:02:50;;;;;;;;;;;;;;;;;;6250880;22;20307;-91
2023/07/15 13:05:15;;;;;;;;;;;;;;;;;;6250883;22;19907;-91
2023/07/15 13:07:40;;;;;;;;;;;;;;;;;;6250994;22;19965;-91
2023/07/15 13:10:06;;;;;;;;;;;;;;;;;;6251201;22;20372;-91
2023/07/15 13:12:31;;;;;;;;;;;;;;;;;;6268359;22;19989;-92
2023/07/15 13:14:57;;;;;;;;;;;;;;;;;;6276857;22;19986;-91
2023/07/15 13:17:22;;;;;;;;;;;;;;;;;;6275533;22;19907;-92
2023/07/15 13:19:47;;;;;;;;;;;;;;;;;;6276555;22;20326;-91
2023/07/15 13:22:13;;;;;;;;;;;;;;;;;;6278011;22;19943;-91
2023/07/15 13:24:38;;;;;;;;;;;;;;;;;;6276729;22;19907;-91
2023/07/15 13:27:04;;;;;;;;;;;;;;;;;;6277835;22;19957;-92
2023/07/15 13:29:29;;;;;;;;;;;;;;;;;;6278519;22;19907;-92
2023/07/15 13:31:54;;;;;;;;;;;;;;;;;;6278272;22;19914;-91
2023/07/15 13:34:20;;;;;;;;;;;;;;;;;;6278443;22;20403;-91
2023/07/15 13:36:45;;;;;;;;;;;;;;;;;;6278400;22;20326;-91
2023/07/15 13:39:31;;;;;;;;;;;;;;;;;;6278486;22;20360;-91
2023/07/15 13:41:56;;;;;;;;;;;;;;;;;;6278018;22;19983;-91
2023/07/15 13:44:21;;;;;;;;;;;;;;;;;;6277753;22;19908;-92
2023/07/15 13:46:47;;;;;;;;;;;;;;;;;;6278293;22;19907;-92
2023/07/15 13:49:12;;;;;;;;;;;;;;;;;;6277996;22;19918;-92
2023/07/15 13:51:37;;;;;;;;;;;;;;;;;;6279495;22;19937;-92
2023/07/15 13:54:03;;;;;;;;;;;;;;;;;;6278493;22;19915;-92
2023/07/15 13:56:28;;;;;;;;;;;;;;;;;;6279537;22;19907;-92
2023/07/15 13:58:53;;;;;;;;;;;;;;;;;;6278886;22;20291;-92
2023/07/15 14:01:19;;;;;;;;;;;;;;;;;;6278363;22;19982;-92
2023/07/15 14:03:44;;;;;;;;;;;;;;;;;;6278460;22;19907;-92
2023/07/15 14:06:09;;;;;;;;;;;;;;;;;;6278501;22;20341;-92
2023/07/15 14:08:36;;;;;;;;;;;;;;;;;;6278121;22;19907;-92
2023/07/15 14:11:01;;;;;;;;;;;;;;;;;;6281611;22;20297;-92
2023/07/15 14:13:26;;;;;;;;;;;;;;;;;;6284518;22;19907;-92
2023/07/15 14:15:52;;;;;;;;;;;;;;;;;;6284770;22;19967;-92
2023/07/15 14:18:17;;;;;;;;;;;;;;;;;;6284920;22;20327;-92
2023/07/15 14:20:42;;;;;;;;;;;;;;;;;;6284585;22;19907;-92
2023/07/15 14:23:08;;;;;;;;;;;;;;;;;;6284200;22;19907;-92
2023/07/15 14:25:33;;;;;;;;;;;;;;;;;;6311257;22;19938;-92
2023/07/15 14:27:58;;;;;;;;;;;;;;;;;;6283166;22;19907;-91
2023/07/15 14:30:24;;;;;;;;;;;;;;;;;;6283471;22;19948;-92
2023/07/15 14:32:49;;;;;;;;;;;;;;;;;;6282898;22;19913;-91
2023/07/15 14:35:14;;;;;;;;;;;;;;;;;;6282822;22;19907;-92
2023/07/15 14:37:40;;;;;;;;;;;;;;;;;;6309798;22;20360;-93
2023/07/15 14:40:06;;;;;;;;;;;;;;;;;;6283316;22;19906;-92
2023/07/15 14:42:31;;;;;;;;;;;;;;;;;;6282866;22;19907;-90
2023/07/15 14:44:57;;;;;;;;;;;;;;;;;;6282819;22;19986;-93
2023/07/15 14:47:22;;;;;;;;;;;;;;;;;;6282723;22;19985;-91
2023/07/15 14:49:47;;;;;;;;;;;;;;;;;;6310176;22;19907;-91
2023/07/15 14:52:13;;;;;;;;;;;;;;;;;;6282746;22;19984;-91
2023/07/15 14:54:38;;;;;;;;;;;;;;;;;;6309806;22;19961;-91
2023/07/15 14:57:03;;;;;;;;;;;;;;;;;;6282554;22;19907;-91
2023/07/15 16:53:17;;;;;;;;;;;;;;;;;;6306871;22;20384;-88
2023/07/15 16:55:42;;;;;;;;;;;;;;;;;;6308827;22;19941;-87
2023/07/15 16:58:08;;;;;;;;;;;;;;;;;;6281054;22;20310;-88
2023/07/15 17:00:33;;;;;;;;;;;;;;;;;;6308774;22;19910;-86
2023/07/15 17:02:58;;;;;;;;;;;;;;;;;;6310649;22;20368;-89
2023/07/15 17:05:24;;;;;;;;;;;;;;;;;;6310725;22;19917;-86
2023/07/15 17:07:49;;;;;;;;;;;;;;;;;;6310981;22;19989;-92
2023/07/15 17:10:14;;;;;;;;;;;;;;;;;;6310491;22;19913;-91
2023/07/15 17:12:40;;;;;;;;;;;;;;;;;;6311006;22;19914;-93
2023/07/15 17:15:05;;;;;;;;;;;;;;;;;;6310759;22;19981;-90
2023/07/15 17:17:31;;;;;;;;;;;;;;;;;;6310873;22;19953;-87
2023/07/15 17:19:56;;;;;;;;;;;;;;;;;;6310311;22;19957;-87
2023/07/15 17:22:21;;;;;;;;;;;;;;;;;;6310426;22;19907;-88
2023/07/15 17:24:52;;;;;;;;;;;;;;;;;;6310956;22;19907;-91
2023/07/15 17:27:18;;;;;;;;;;;;;;;;;;6283171;22;19956;-88
2023/07/15 17:29:43;;;;;;;;;;;;;;;;;;6310937;22;20343;-91
2023/07/15 17:32:09;;;;;;;;;;;;;;;;;;6310724;22;19907;-91
2023/07/15 17:34:34;;;;;;;;;;;;;;;;;;6310689;22;19910;-91
2023/07/15 17:36:59;;;;;;;;;;;;;;;;;;6310761;22;19907;-91
2023/07/15 17:39:25;;;;;;;;;;;;;;;;;;6310861;22;19907;-88
2023/07/15 17:41:50;;;;;;;;;;;;;;;;;;6288273;22;19934;-95
2023/07/15 17:44:24;;;;;;;;;;;;;;;;;;6311437;22;19907;-93
2023/07/15 17:46:50;;;;;;;;;;;;;;;;;;6283955;22;20330;-92
2023/07/15 17:49:15;;;;;;;;;;;;;;;;;;6314126;22;19907;-93
2023/07/15 17:51:40;;;;;;;;;;;;;;;;;;6311827;22;19903;-93
2023/07/15 17:54:06;;;;;;;;;;;;;;;;;;6283520;22;19918;-89
2023/07/15 17:56:31;;;;;;;;;;;;;;;;;;6310098;22;19907;-88
2023/07/15 17:58:57;;;;;;;;;;;;;;;;;;6310404;22;19906;-89
2023/07/15 18:01:22;;;;;;;;;;;;;;;;;;6310549;22;19985;-86
2023/07/15 18:03:48;;;;;;;;;;;;;;;;;;6310396;22;19938;-88
2023/07/15 18:06:13;;;;;;;;;;;;;;;;;;6311710;22;20203;-90
2023/07/15 18:08:39;;;;;;;;;;;;;;;;;;6283774;22;19981;-90
2023/07/15 18:11:04;;;;;;;;;;;;;;;;;;6311871;22;19906;-90
2023/07/15 18:13:29;;;;;;;;;;;;;;;;;;6285401;22;19914;-93
2023/07/15 18:15:55;;;;;;;;;;;;;;;;;;6287911;22;19925;-91
2023/07/15 18:18:20;;;;;;;;;;;;;;;;;;6284098;22;19985;-87
2023/07/15 18:20:45;;;;;;;;;;;;;;;;;;6310499;22;19934;-86
2023/07/15 18:23:12;;;;;;;;;;;;;;;;;;6310238;22;19999;-84
2023/07/15 18:25:37;;;;;;;;;;;;;;;;;;6310052;22;19911;-84
2023/07/15 18:28:03;;;;;;;;;;;;;;;;;;6310252;22;19914;-87
2023/07/15 18:30:28;;;;;;;;;;;;;;;;;;6310512;22;20268;-88
2023/07/15 18:32:53;;;;;;;;;;;;;;;;;;6311145;22;20347;-83
2023/07/15 18:35:19;;;;;;;;;;;;;;;;;;6310437;22;20024;-82
2023/07/15 18:37:44;;;;;;;;;;;;;;;;;;6310436;22;19907;-83
2023/07/15 18:40:09;;;;;;;;;;;;;;;;;;6310493;22;20000;-87
2023/07/15 18:42:35;;;;;;;;;;;;;;;;;;6310421;22;19903;-88
2023/07/15 18:45:01;;;;;;;;;;;;;;;;;;6310190;22;19907;-84
2023/07/15 18:47:26;;;;;;;;;;;;;;;;;;6309953;22;20310;-84
2023/07/15 18:49:51;;;;;;;;;;;;;;;;;;6282480;22;19953;-88
2023/07/15 18:52:17;;;;;;;;;;;;;;;;;;6309442;22;20299;-90
2023/07/15 18:54:42;;;;;;;;;;;;;;;;;;6309541;22;19907;-82
2023/07/15 18:57:07;;;;;;;;;;;;;;;;;;6309737;22;19910;-83
2023/07/15 18:59:33;;;;;;;;;;;;;;;;;;6309435;22;19950;-87
2023/07/15 19:01:58;;;;;;;;;;;;;;;;;;6309234;22;19977;-91
2023/07/15 19:04:23;;;;;;;;;;;;;;;;;;6309627;22;19938;-90
2023/07/15 19:06:49;;;;;;;;;;;;;;;;;;6309117;22;19914;-90
2023/07/15 19:09:14;;;;;;;;;;;;;;;;;;6309652;22;20218;-88
2023/07/15 19:11:39;;;;;;;;;;;;;;;;;;6281867;22;20242;-82
2023/07/15 19:14:05;;;;;;;;;;;;;;;;;;6309315;22;19985;-84
2023/07/15 19:16:31;;;;;;;;;;;;;;;;;;6309214;22;19907;-86
2023/07/15 19:18:57;;;;;;;;;;;;;;;;;;6309523;22;20314;-87
2023/07/15 19:21:22;;;;;;;;;;;;;;;;;;6309329;22;19914;-86
2023/07/15 19:23:48;;;;;;;;;;;;;;;;;;6309544;22;19907;-88
2023/07/15 19:26:13;;;;;;;;;;;;;;;;;;6309851;22;19913;-89
